sensor_id;sensor_type;location;lat;lon;timestamp;P1;durP1;ratioP1;P2;durP2;ratioP2
1991;SDS011;997;48.448;8.924;2023-06-14T05:39:46;6.63;;;5.53;;
1991;SDS011;997;48.448;8.924;2023-06-14T05:42:12;6.30;;;5.80;;
1991;SDS011;997;48.448;8.924;2023-06-14T05:44:37;7.33;;;6.00;;
1991;SDS011;997;48.448;8.924;2023-06-14T05:47:03;6.33;;;5.83;;
1991;SDS011;997;48.448;8.924;2023-06-14T05:49:29;6.67;;;6.10;;
1991;SDS011;997;48.448;8.924;2023-06-14T05:51:56;5.70;;;5.20;;
1991;SDS011;997;48.448;8.924;2023-06-14T05:54:21;6.07;;;5.63;;
1991;SDS011;997;48.448;8.924;2023-06-14T05:56:47;6.67;;;6.07;;
1991;SDS011;997;48.448;8.924;2023-06-14T05:59:12;6.90;;;6.30;;
1991;SDS011;997;48.448;8.924;2023-06-14T06:01:38;7.33;;;6.73;;
1991;SDS011;997;48.448;8.924;2023-06-14T06:04:05;6.43;;;5.90;;
1991;SDS011;997;48.448;8.924;2023-06-14T06:06:31;6.90;;;6.20;;
1991;SDS011;997;48.448;8.924;2023-06-14T06:08:57;7.17;;;6.47;;
1991;SDS011;997;48.448;8.924;2023-06-14T06:11:23;8.70;;;5.73;;
1991;SDS011;997;48.448;8.924;2023-06-14T06:13:49;6.23;;;5.67;;
1991;SDS011;997;48.448;8.924;2023-06-14T06:16:14;6.43;;;5.93;;
1991;SDS011;997;48.448;8.924;2023-06-14T06:18:40;7.37;;;6.77;;
1991;SDS011;997;48.448;8.924;2023-06-14T06:21:06;6.53;;;6.03;;
1991;SDS011;997;48.448;8.924;2023-06-14T06:23:31;7.47;;;6.00;;
1991;SDS011;997;48.448;8.924;2023-06-14T06:25:57;6.60;;;6.10;;
1991;SDS011;997;48.448;8.924;2023-06-14T06:28:23;6.60;;;5.73;;
1991;SDS011;997;48.448;8.924;2023-06-14T06:30:48;14.43;;;6.43;;
1991;SDS011;997;48.448;8.924;2023-06-14T06:33:15;7.30;;;6.17;;
1991;SDS011;997;48.448;8.924;2023-06-14T06:35:41;6.87;;;6.27;;
1991;SDS011;997;48.448;8.924;2023-06-14T06:38:07;6.73;;;6.23;;
1991;SDS011;997;48.448;8.924;2023-06-14T06:40:35;7.70;;;6.30;;
1991;SDS011;997;48.448;8.924;2023-06-14T06:43:01;6.17;;;5.57;;
1991;SDS011;997;48.448;8.924;2023-06-14T06:45:28;6.37;;;5.87;;
1991;SDS011;997;48.448;8.924;2023-06-14T06:47:54;6.53;;;5.93;;
1991;SDS011;997;48.448;8.924;2023-06-14T06:50:20;7.00;;;6.30;;
1991;SDS011;997;48.448;8.924;2023-06-14T06:52:48;6.43;;;5.80;;
1991;SDS011;997;48.448;8.924;2023-06-14T06:55:14;6.50;;;5.97;;
1991;SDS011;997;48.448;8.924;2023-06-14T06:57:40;7.67;;;5.20;;
1991;SDS011;997;48.448;8.924;2023-06-14T07:00:06;5.13;;;4.63;;
1991;SDS011;997;48.448;8.924;2023-06-14T07:02:34;6.30;;;5.80;;
1991;SDS011;997;48.448;8.924;2023-06-14T07:05:00;7.83;;;6.10;;
1991;SDS011;997;48.448;8.924;2023-06-14T07:07:26;11.03;;;7.00;;
1991;SDS011;997;48.448;8.924;2023-06-14T07:09:51;5.70;;;5.30;;
1991;SDS011;997;48.448;8.924;2023-06-14T07:12:17;7.77;;;6.80;;
1991;SDS011;997;48.448;8.924;2023-06-14T07:14:43;6.60;;;5.83;;
1991;SDS011;997;48.448;8.924;2023-06-14T07:17:09;7.97;;;7.10;;
1991;SDS011;997;48.448;8.924;2023-06-14T07:19:34;6.47;;;5.83;;
1991;SDS011;997;48.448;8.924;2023-06-14T07:22:00;6.03;;;5.37;;
1991;SDS011;997;48.448;8.924;2023-06-14T07:24:26;6.60;;;6.10;;
1991;SDS011;997;48.448;8.924;2023-06-14T07:26:53;6.13;;;5.70;;
1991;SDS011;997;48.448;8.924;2023-06-14T07:29:19;6.60;;;5.77;;
1991;SDS011;997;48.448;8.924;2023-06-14T07:31:46;7.60;;;6.27;;
1991;SDS011;997;48.448;8.924;2023-06-14T07:34:12;6.60;;;5.30;;
1991;SDS011;997;48.448;8.924;2023-06-14T07:36:37;5.90;;;5.40;;
1991;SDS011;997;48.448;8.924;2023-06-14T07:39:03;7.93;;;5.67;;
1991;SDS011;997;48.448;8.924;2023-06-14T07:41:31;5.83;;;5.30;;
1991;SDS011;997;48.448;8.924;2023-06-14T07:43:57;5.30;;;4.90;;
1991;SDS011;997;48.448;8.924;2023-06-14T07:46:23;6.53;;;5.90;;
1991;SDS011;997;48.448;8.924;2023-06-14T07:48:49;5.20;;;4.80;;
1991;SDS011;997;48.448;8.924;2023-06-14T07:51:15;6.17;;;5.67;;
1991;SDS011;997;48.448;8.924;2023-06-14T07:53:40;5.60;;;5.03;;
1991;SDS011;997;48.448;8.924;2023-06-14T07:56:07;6.13;;;5.67;;
1991;SDS011;997;48.448;8.924;2023-06-14T07:58:32;6.37;;;5.77;;
1991;SDS011;997;48.448;8.924;2023-06-14T08:00:58;6.53;;;6.00;;
1991;SDS011;997;48.448;8.924;2023-06-14T08:03:26;5.80;;;5.30;;
1991;SDS011;997;48.448;8.924;2023-06-14T08:05:52;6.03;;;5.53;;
1991;SDS011;997;48.448;8.924;2023-06-14T08:08:17;6.63;;;5.73;;
1991;SDS011;997;48.448;8.924;2023-06-14T08:10:43;7.40;;;6.10;;
1991;SDS011;997;48.448;8.924;2023-06-14T08:13:09;6.07;;;5.57;;
1991;SDS011;997;48.448;8.924;2023-06-14T08:15:35;8.20;;;6.43;;
1991;SDS011;997;48.448;8.924;2023-06-14T08:18:01;5.93;;;5.43;;
1991;SDS011;997;48.448;8.924;2023-06-14T08:20:26;9.20;;;6.03;;
1991;SDS011;997;48.448;8.924;2023-06-14T08:22:52;6.10;;;5.60;;
1991;SDS011;997;48.448;8.924;2023-06-14T08:25:21;9.00;;;5.50;;
1991;SDS011;997;48.448;8.924;2023-06-14T08:27:47;5.90;;;5.30;;
1991;SDS011;997;48.448;8.924;2023-06-14T08:30:13;7.93;;;5.97;;
1991;SDS011;997;48.448;8.924;2023-06-14T08:32:39;6.07;;;5.57;;
1991;SDS011;997;48.448;8.924;2023-06-14T08:35:04;6.50;;;5.87;;
1991;SDS011;997;48.448;8.924;2023-06-14T08:37:32;8.50;;;5.80;;
1991;SDS011;997;48.448;8.924;2023-06-14T08:40:00;6.43;;;5.93;;
1991;SDS011;997;48.448;8.924;2023-06-14T08:42:28;7.80;;;5.20;;
1991;SDS011;997;48.448;8.924;2023-06-14T08:44:55;6.10;;;5.50;;
1991;SDS011;997;48.448;8.924;2023-06-14T08:47:20;5.90;;;5.40;;
1991;SDS011;997;48.448;8.924;2023-06-14T08:49:49;7.10;;;6.57;;
1991;SDS011;997;48.448;8.924;2023-06-14T08:52:17;6.40;;;5.80;;
1991;SDS011;997;48.448;8.924;2023-06-14T08:54:46;6.40;;;5.60;;
1991;SDS011;997;48.448;8.924;2023-06-14T08:57:13;8.47;;;6.50;;
1991;SDS011;997;48.448;8.924;2023-06-14T08:59:41;10.70;;;6.00;;
1991;SDS011;997;48.448;8.924;2023-06-14T09:02:14;6.23;;;5.60;;
1991;SDS011;997;48.448;8.924;2023-06-14T09:04:43;5.60;;;5.10;;
1991;SDS011;997;48.448;8.924;2023-06-14T09:07:09;5.37;;;4.97;;
1991;SDS011;997;48.448;8.924;2023-06-14T09:09:38;5.30;;;4.90;;
1991;SDS011;997;48.448;8.924;2023-06-14T09:12:06;6.23;;;5.63;;
1991;SDS011;997;48.448;8.924;2023-06-14T09:14:35;4.67;;;4.27;;
1991;SDS011;997;48.448;8.924;2023-06-14T09:17:03;4.87;;;4.30;;
1991;SDS011;997;48.448;8.924;2023-06-14T09:19:29;5.20;;;4.77;;
1991;SDS011;997;48.448;8.924;2023-06-14T09:21:55;4.90;;;4.50;;
1991;SDS011;997;48.448;8.924;2023-06-14T09:24:21;4.13;;;3.80;;
1991;SDS011;997;48.448;8.924;2023-06-14T09:26:51;5.10;;;4.60;;
1991;SDS011;997;48.448;8.924;2023-06-14T09:29:17;7.87;;;4.60;;
1991;SDS011;997;48.448;8.924;2023-06-14T09:31:45;4.73;;;4.33;;
1991;SDS011;997;48.448;8.924;2023-06-14T09:34:11;5.03;;;4.53;;
1991;SDS011;997;48.448;8.924;2023-06-14T09:36:37;4.40;;;4.00;;
1991;SDS011;997;48.448;8.924;2023-06-14T09:39:07;4.60;;;4.20;;
1991;SDS011;997;48.448;8.924;2023-06-14T09:41:42;4.87;;;4.47;;
1991;SDS011;997;48.448;8.924;2023-06-14T09:44:09;6.70;;;4.63;;
1991;SDS011;997;48.448;8.924;2023-06-14T09:46:36;7.30;;;4.20;;
1991;SDS011;997;48.448;8.924;2023-06-14T09:49:03;11.20;;;4.33;;
1991;SDS011;997;48.448;8.924;2023-06-14T09:51:30;5.20;;;4.90;;
1991;SDS011;997;48.448;8.924;2023-06-14T09:53:58;6.13;;;4.77;;
1991;SDS011;997;48.448;8.924;2023-06-14T09:56:29;5.70;;;4.13;;
1991;SDS011;997;48.448;8.924;2023-06-14T09:59:08;5.00;;;4.50;;
1991;SDS011;997;48.448;8.924;2023-06-14T10:01:35;5.00;;;4.20;;
1991;SDS011;997;48.448;8.924;2023-06-14T10:04:07;4.90;;;4.47;;
1991;SDS011;997;48.448;8.924;2023-06-14T10:06:43;9.83;;;5.43;;
1991;SDS011;997;48.448;8.924;2023-06-14T10:09:10;7.10;;;5.47;;
1991;SDS011;997;48.448;8.924;2023-06-14T10:11:37;4.30;;;4.00;;
1991;SDS011;997;48.448;8.924;2023-06-14T10:14:08;4.50;;;4.07;;
1991;SDS011;997;48.448;8.924;2023-06-14T10:19:32;6.40;;;5.80;;
1991;SDS011;997;48.448;8.924;2023-06-14T10:22:23;11.67;;;5.40;;
1991;SDS011;997;48.448;8.924;2023-06-14T10:25:03;4.73;;;4.23;;
1991;SDS011;997;48.448;8.924;2023-06-14T10:27:37;5.53;;;5.17;;
1991;SDS011;997;48.448;8.924;2023-06-14T10:30:03;6.60;;;4.80;;
1991;SDS011;997;48.448;8.924;2023-06-14T10:32:30;4.80;;;4.40;;
1991;SDS011;997;48.448;8.924;2023-06-14T10:35:01;6.70;;;6.10;;
1991;SDS011;997;48.448;8.924;2023-06-14T10:37:30;5.63;;;5.20;;
1991;SDS011;997;48.448;8.924;2023-06-14T10:39:56;10.27;;;5.57;;
1991;SDS011;997;48.448;8.924;2023-06-14T10:42:23;8.63;;;6.47;;
1991;SDS011;997;48.448;8.924;2023-06-14T10:44:58;5.47;;;5.00;;
1991;SDS011;997;48.448;8.924;2023-06-14T10:47:34;5.90;;;5.40;;
1991;SDS011;997;48.448;8.924;2023-06-14T10:52:27;5.43;;;5.03;;
1991;SDS011;997;48.448;8.924;2023-06-14T11:00:20;4.97;;;4.57;;
1991;SDS011;997;48.448;8.924;2023-06-14T11:05:56;6.17;;;5.00;;
1991;SDS011;997;48.448;8.924;2023-06-14T11:11:29;5.13;;;4.73;;
1991;SDS011;997;48.448;8.924;2023-06-14T11:14:00;6.03;;;5.53;;
1991;SDS011;997;48.448;8.924;2023-06-14T11:16:28;5.00;;;4.50;;
1991;SDS011;997;48.448;8.924;2023-06-14T11:18:54;6.90;;;4.57;;
1991;SDS011;997;48.448;8.924;2023-06-14T11:21:20;5.00;;;4.60;;
1991;SDS011;997;48.448;8.924;2023-06-14T11:23:50;6.00;;;5.40;;
1991;SDS011;997;48.448;8.924;2023-06-14T11:26:26;5.30;;;4.80;;
1991;SDS011;997;48.448;8.924;2023-06-14T11:28:57;5.93;;;5.43;;
1991;SDS011;997;48.448;8.924;2023-06-14T11:31:24;8.70;;;4.57;;
1991;SDS011;997;48.448;8.924;2023-06-14T11:33:53;27.07;;;8.23;;
1991;SDS011;997;48.448;8.924;2023-06-14T11:36:28;8.27;;;6.07;;
1991;SDS011;997;48.448;8.924;2023-06-14T11:38:59;5.77;;;5.20;;
1991;SDS011;997;48.448;8.924;2023-06-14T11:41:25;4.60;;;4.30;;
1991;SDS011;997;48.448;8.924;2023-06-14T11:43:56;5.20;;;4.80;;
1991;SDS011;997;48.448;8.924;2023-06-14T11:46:23;8.90;;;5.20;;
1991;SDS011;997;48.448;8.924;2023-06-14T11:48:51;5.93;;;4.60;;
1991;SDS011;997;48.448;8.924;2023-06-14T11:51:19;6.70;;;4.27;;
1991;SDS011;997;48.448;8.924;2023-06-14T11:53:45;4.87;;;4.47;;
1991;SDS011;997;48.448;8.924;2023-06-14T11:56:11;4.97;;;4.57;;
1991;SDS011;997;48.448;8.924;2023-06-14T11:58:37;5.43;;;5.03;;
1991;SDS011;997;48.448;8.924;2023-06-14T12:01:03;5.63;;;5.13;;
1991;SDS011;997;48.448;8.924;2023-06-14T12:03:29;5.33;;;4.93;;
1991;SDS011;997;48.448;8.924;2023-06-14T12:06:02;4.80;;;4.40;;
1991;SDS011;997;48.448;8.924;2023-06-14T12:08:34;4.67;;;4.17;;
1991;SDS011;997;48.448;8.924;2023-06-14T12:11:05;7.23;;;4.97;;
1991;SDS011;997;48.448;8.924;2023-06-14T12:13:42;5.00;;;4.50;;
1991;SDS011;997;48.448;8.924;2023-06-14T12:16:08;5.00;;;4.60;;
1991;SDS011;997;48.448;8.924;2023-06-14T12:18:38;5.00;;;4.67;;
1991;SDS011;997;48.448;8.924;2023-06-14T12:21:06;5.67;;;5.17;;
1991;SDS011;997;48.448;8.924;2023-06-14T12:24:06;4.60;;;4.27;;
1991;SDS011;997;48.448;8.924;2023-06-14T12:26:24;6.20;;;5.70;;
1991;SDS011;997;48.448;8.924;2023-06-14T12:28:52;6.80;;;5.03;;
1991;SDS011;997;48.448;8.924;2023-06-14T12:31:17;5.37;;;4.87;;
1991;SDS011;997;48.448;8.924;2023-06-14T12:33:43;5.23;;;4.83;;
1991;SDS011;997;48.448;8.924;2023-06-14T12:38:56;5.27;;;4.70;;
1991;SDS011;997;48.448;8.924;2023-06-14T12:41:22;5.33;;;4.80;;
1991;SDS011;997;48.448;8.924;2023-06-14T12:43:48;5.40;;;4.87;;
1991;SDS011;997;48.448;8.924;2023-06-14T12:46:13;5.17;;;4.70;;
1991;SDS011;997;48.448;8.924;2023-06-14T12:48:39;6.67;;;5.00;;
1991;SDS011;997;48.448;8.924;2023-06-14T12:51:16;6.70;;;4.97;;
1991;SDS011;997;48.448;8.924;2023-06-14T12:53:54;4.80;;;4.50;;
1991;SDS011;997;48.448;8.924;2023-06-14T12:56:20;4.80;;;4.40;;
1991;SDS011;997;48.448;8.924;2023-06-14T12:58:46;4.73;;;4.43;;
1991;SDS011;997;48.448;8.924;2023-06-14T13:01:11;5.23;;;4.83;;
1991;SDS011;997;48.448;8.924;2023-06-14T13:03:37;5.07;;;4.70;;
1991;SDS011;997;48.448;8.924;2023-06-14T13:06:02;8.20;;;5.17;;
1991;SDS011;997;48.448;8.924;2023-06-14T13:08:29;5.20;;;4.80;;
1991;SDS011;997;48.448;8.924;2023-06-14T13:10:55;5.43;;;5.00;;
1991;SDS011;997;48.448;8.924;2023-06-14T13:13:21;4.73;;;4.30;;
1991;SDS011;997;48.448;8.924;2023-06-14T13:15:46;4.93;;;4.33;;
1991;SDS011;997;48.448;8.924;2023-06-14T13:18:14;5.23;;;4.83;;
1991;SDS011;997;48.448;8.924;2023-06-14T13:20:39;5.40;;;5.00;;
1991;SDS011;997;48.448;8.924;2023-06-14T13:23:05;5.60;;;5.03;;
1991;SDS011;997;48.448;8.924;2023-06-14T13:25:35;5.63;;;4.93;;
1991;SDS011;997;48.448;8.924;2023-06-14T13:28:03;5.17;;;4.70;;
1991;SDS011;997;48.448;8.924;2023-06-14T13:30:29;5.23;;;4.93;;
1991;SDS011;997;48.448;8.924;2023-06-14T13:32:56;8.47;;;5.00;;
1991;SDS011;997;48.448;8.924;2023-06-14T13:35:22;12.57;;;4.30;;
1991;SDS011;997;48.448;8.924;2023-06-14T13:37:48;5.30;;;4.70;;
1991;SDS011;997;48.448;8.924;2023-06-14T13:40:14;6.07;;;5.57;;
1991;SDS011;997;48.448;8.924;2023-06-14T13:42:40;5.27;;;4.80;;
1991;SDS011;997;48.448;8.924;2023-06-14T13:45:06;5.70;;;5.27;;
1991;SDS011;997;48.448;8.924;2023-06-14T13:47:33;5.23;;;4.83;;
1991;SDS011;997;48.448;8.924;2023-06-14T13:49:59;5.80;;;5.23;;
1991;SDS011;997;48.448;8.924;2023-06-14T13:52:24;5.37;;;4.87;;
1991;SDS011;997;48.448;8.924;2023-06-14T13:58:52;5.90;;;5.50;;
1991;SDS011;997;48.448;8.924;2023-06-14T14:11:59;4.43;;;4.13;;
1991;SDS011;997;48.448;8.924;2023-06-14T14:14:27;5.63;;;4.97;;
1991;SDS011;997;48.448;8.924;2023-06-14T14:17:01;5.43;;;5.03;;
1991;SDS011;997;48.448;8.924;2023-06-14T14:19:29;4.30;;;3.90;;
1991;SDS011;997;48.448;8.924;2023-06-14T14:21:55;6.53;;;4.43;;
1991;SDS011;997;48.448;8.924;2023-06-14T14:24:21;5.47;;;4.90;;
1991;SDS011;997;48.448;8.924;2023-06-14T14:26:46;4.90;;;4.40;;
1991;SDS011;997;48.448;8.924;2023-06-14T14:29:22;5.53;;;5.13;;
1991;SDS011;997;48.448;8.924;2023-06-14T14:31:49;6.10;;;5.50;;
1991;SDS011;997;48.448;8.924;2023-06-14T14:34:15;4.10;;;3.80;;
1991;SDS011;997;48.448;8.924;2023-06-14T14:36:41;6.00;;;5.17;;
1991;SDS011;997;48.448;8.924;2023-06-14T14:39:07;7.30;;;4.60;;
1991;SDS011;997;48.448;8.924;2023-06-14T14:41:33;4.90;;;4.50;;
1991;SDS011;997;48.448;8.924;2023-06-14T14:43:59;5.00;;;4.60;;
1991;SDS011;997;48.448;8.924;2023-06-14T14:46:26;5.00;;;4.60;;
1991;SDS011;997;48.448;8.924;2023-06-14T14:48:52;5.57;;;5.07;;
1991;SDS011;997;48.448;8.924;2023-06-14T14:51:18;4.80;;;4.30;;
1991;SDS011;997;48.448;8.924;2023-06-14T14:53:44;5.27;;;4.77;;
1991;SDS011;997;48.448;8.924;2023-06-14T14:56:10;6.40;;;5.03;;
1991;SDS011;997;48.448;8.924;2023-06-14T14:58:37;4.60;;;3.77;;
1991;SDS011;997;48.448;8.924;2023-06-14T15:01:26;5.20;;;4.80;;
1991;SDS011;997;48.448;8.924;2023-06-14T15:03:57;4.33;;;4.03;;
1991;SDS011;997;48.448;8.924;2023-06-14T15:06:22;4.77;;;4.47;;
1991;SDS011;997;48.448;8.924;2023-06-14T15:08:48;5.17;;;4.77;;
1991;SDS011;997;48.448;8.924;2023-06-14T15:11:14;4.90;;;4.50;;
1991;SDS011;997;48.448;8.924;2023-06-14T15:13:40;5.10;;;4.70;;
1991;SDS011;997;48.448;8.924;2023-06-14T15:16:05;5.70;;;4.47;;
1991;SDS011;997;48.448;8.924;2023-06-14T15:18:34;4.87;;;4.57;;
1991;SDS011;997;48.448;8.924;2023-06-14T15:21:00;8.63;;;4.53;;
1991;SDS011;997;48.448;8.924;2023-06-14T15:23:25;5.10;;;4.13;;
1991;SDS011;997;48.448;8.924;2023-06-14T15:25:51;4.87;;;4.37;;
1991;SDS011;997;48.448;8.924;2023-06-14T15:28:17;5.10;;;4.60;;
1991;SDS011;997;48.448;8.924;2023-06-14T15:30:42;4.57;;;4.20;;
1991;SDS011;997;48.448;8.924;2023-06-14T15:33:08;5.00;;;4.60;;
1991;SDS011;997;48.448;8.924;2023-06-14T15:35:34;4.70;;;4.30;;
1991;SDS011;997;48.448;8.924;2023-06-14T15:38:00;5.27;;;4.87;;
1991;SDS011;997;48.448;8.924;2023-06-14T15:40:26;3.87;;;3.60;;
1991;SDS011;997;48.448;8.924;2023-06-14T15:42:53;4.30;;;4.00;;
1991;SDS011;997;48.448;8.924;2023-06-14T15:45:18;4.40;;;4.00;;
1991;SDS011;997;48.448;8.924;2023-06-14T15:47:44;5.30;;;4.33;;
1991;SDS011;997;48.448;8.924;2023-06-14T15:50:10;3.83;;;3.57;;
1991;SDS011;997;48.448;8.924;2023-06-14T15:52:35;4.63;;;4.23;;
1991;SDS011;997;48.448;8.924;2023-06-14T15:55:01;5.43;;;4.10;;
1991;SDS011;997;48.448;8.924;2023-06-14T15:57:28;3.90;;;3.60;;
1991;SDS011;997;48.448;8.924;2023-06-14T15:59:54;4.80;;;4.40;;
1991;SDS011;997;48.448;8.924;2023-06-14T16:02:20;8.80;;;4.07;;
1991;SDS011;997;48.448;8.924;2023-06-14T16:04:45;3.70;;;3.40;;
1991;SDS011;997;48.448;8.924;2023-06-14T16:07:11;4.00;;;3.70;;
1991;SDS011;997;48.448;8.924;2023-06-14T16:09:38;4.57;;;4.23;;
1991;SDS011;997;48.448;8.924;2023-06-14T16:12:04;5.47;;;4.10;;
1991;SDS011;997;48.448;8.924;2023-06-14T16:14:30;4.97;;;4.47;;
1991;SDS011;997;48.448;8.924;2023-06-14T16:16:56;4.70;;;4.30;;
1991;SDS011;997;48.448;8.924;2023-06-14T16:19:22;4.73;;;4.07;;
1991;SDS011;997;48.448;8.924;2023-06-14T16:21:47;5.43;;;4.20;;
1991;SDS011;997;48.448;8.924;2023-06-14T16:24:13;4.73;;;4.43;;
1991;SDS011;997;48.448;8.924;2023-06-14T16:26:39;4.80;;;4.30;;
1991;SDS011;997;48.448;8.924;2023-06-14T16:29:05;3.70;;;3.40;;
1991;SDS011;997;48.448;8.924;2023-06-14T16:31:31;4.47;;;4.03;;
1991;SDS011;997;48.448;8.924;2023-06-14T16:33:56;5.90;;;4.20;;
1991;SDS011;997;48.448;8.924;2023-06-14T16:36:22;3.97;;;3.67;;
1991;SDS011;997;48.448;8.924;2023-06-14T16:38:49;4.33;;;4.03;;
1991;SDS011;997;48.448;8.924;2023-06-14T16:41:15;4.03;;;3.70;;
1991;SDS011;997;48.448;8.924;2023-06-14T16:43:41;4.60;;;4.20;;
1991;SDS011;997;48.448;8.924;2023-06-14T16:46:06;6.43;;;4.78;;
1991;SDS011;997;48.448;8.924;2023-06-14T16:48:32;4.70;;;4.30;;
1991;SDS011;997;48.448;8.924;2023-06-14T16:50:59;3.90;;;3.60;;
1991;SDS011;997;48.448;8.924;2023-06-14T16:53:24;5.32;;;4.82;;
1991;SDS011;997;48.448;8.924;2023-06-14T16:55:50;4.32;;;4.00;;
1991;SDS011;997;48.448;8.924;2023-06-14T16:58:16;4.30;;;4.00;;
1991;SDS011;997;48.448;8.924;2023-06-14T17:00:42;4.50;;;3.90;;
1991;SDS011;997;48.448;8.924;2023-06-14T17:03:07;4.37;;;4.07;;
1991;SDS011;997;48.448;8.924;2023-06-14T17:05:33;4.93;;;4.53;;
1991;SDS011;997;48.448;8.924;2023-06-14T17:07:59;8.77;;;3.87;;
1991;SDS011;997;48.448;8.924;2023-06-14T17:10:25;3.43;;;3.20;;
1991;SDS011;997;48.448;8.924;2023-06-14T17:12:52;4.60;;;4.20;;
1991;SDS011;997;48.448;8.924;2023-06-14T17:15:18;4.20;;;3.80;;
1991;SDS011;997;48.448;8.924;2023-06-14T17:17:44;4.10;;;3.73;;
1991;SDS011;997;48.448;8.924;2023-06-14T17:20:09;6.50;;;4.30;;
1991;SDS011;997;48.448;8.924;2023-06-14T17:22:36;4.27;;;3.97;;
1991;SDS011;997;48.448;8.924;2023-06-14T17:25:02;4.30;;;3.90;;
1991;SDS011;997;48.448;8.924;2023-06-14T17:27:27;5.07;;;4.67;;
1991;SDS011;997;48.448;8.924;2023-06-14T17:29:53;4.57;;;4.27;;
1991;SDS011;997;48.448;8.924;2023-06-14T17:32:19;6.53;;;4.43;;
1991;SDS011;997;48.448;8.924;2023-06-14T17:34:45;5.00;;;4.70;;
1991;SDS011;997;48.448;8.924;2023-06-14T17:37:10;5.30;;;4.30;;
1991;SDS011;997;48.448;8.924;2023-06-14T17:39:36;5.60;;;4.20;;
1991;SDS011;997;48.448;8.924;2023-06-14T17:42:04;8.43;;;6.03;;
1991;SDS011;997;48.448;8.924;2023-06-14T17:44:30;5.30;;;4.90;;
1991;SDS011;997;48.448;8.924;2023-06-14T17:46:56;4.37;;;4.00;;
1991;SDS011;997;48.448;8.924;2023-06-14T17:49:21;5.10;;;4.60;;
1991;SDS011;997;48.448;8.924;2023-06-14T17:51:50;6.30;;;5.57;;
1991;SDS011;997;48.448;8.924;2023-06-14T17:54:16;4.90;;;4.40;;
1991;SDS011;997;48.448;8.924;2023-06-14T17:56:42;4.77;;;3.97;;
1991;SDS011;997;48.448;8.924;2023-06-14T17:59:07;5.00;;;4.50;;
1991;SDS011;997;48.448;8.924;2023-06-14T18:01:35;5.67;;;4.50;;
1991;SDS011;997;48.448;8.924;2023-06-14T18:04:00;5.03;;;4.63;;
1991;SDS011;997;48.448;8.924;2023-06-14T18:06:27;5.03;;;4.63;;
1991;SDS011;997;48.448;8.924;2023-06-14T18:08:52;4.60;;;4.20;;
1991;SDS011;997;48.448;8.924;2023-06-14T18:11:18;4.67;;;4.27;;
1991;SDS011;997;48.448;8.924;2023-06-14T18:13:44;5.53;;;4.80;;
1991;SDS011;997;48.448;8.924;2023-06-14T18:16:10;4.37;;;3.90;;
1991;SDS011;997;48.448;8.924;2023-06-14T18:18:39;6.00;;;4.40;;
1991;SDS011;997;48.448;8.924;2023-06-14T18:21:05;5.23;;;4.83;;
1991;SDS011;997;48.448;8.924;2023-06-14T18:23:31;4.43;;;4.03;;
1991;SDS011;997;48.448;8.924;2023-06-14T18:25:57;5.43;;;4.37;;
1991;SDS011;997;48.448;8.924;2023-06-14T18:28:22;8.67;;;5.17;;
1991;SDS011;997;48.448;8.924;2023-06-14T18:30:48;7.87;;;4.80;;
1991;SDS011;997;48.448;8.924;2023-06-14T18:33:13;4.07;;;3.70;;
1991;SDS011;997;48.448;8.924;2023-06-14T18:35:40;4.50;;;4.13;;
1991;SDS011;997;48.448;8.924;2023-06-14T18:38:06;5.40;;;4.47;;
1991;SDS011;997;48.448;8.924;2023-06-14T18:40:32;5.60;;;5.10;;
1991;SDS011;997;48.448;8.924;2023-06-14T18:42:57;9.70;;;4.40;;
1991;SDS011;997;48.448;8.924;2023-06-14T18:45:23;6.07;;;5.47;;
1991;SDS011;997;48.448;8.924;2023-06-14T18:47:49;4.80;;;4.37;;
1991;SDS011;997;48.448;8.924;2023-06-14T18:50:14;9.40;;;4.33;;
1991;SDS011;997;48.448;8.924;2023-06-14T18:52:40;4.60;;;4.20;;
1991;SDS011;997;48.448;8.924;2023-06-14T18:55:06;5.83;;;3.87;;
1991;SDS011;997;48.448;8.924;2023-06-14T18:57:31;4.80;;;4.50;;
1991;SDS011;997;48.448;8.924;2023-06-14T18:59:57;6.77;;;5.43;;
1991;SDS011;997;48.448;8.924;2023-06-14T19:02:23;5.30;;;4.90;;
1991;SDS011;997;48.448;8.924;2023-06-14T19:04:48;13.37;;;5.57;;
1991;SDS011;997;48.448;8.924;2023-06-14T19:07:14;5.00;;;4.60;;
1991;SDS011;997;48.448;8.924;2023-06-14T19:09:40;5.20;;;4.70;;
1991;SDS011;997;48.448;8.924;2023-06-14T19:12:05;4.90;;;4.47;;
1991;SDS011;997;48.448;8.924;2023-06-14T19:14:32;6.73;;;4.93;;
1991;SDS011;997;48.448;8.924;2023-06-14T19:16:57;4.70;;;4.30;;
1991;SDS011;997;48.448;8.924;2023-06-14T19:19:23;5.63;;;4.90;;
1991;SDS011;997;48.448;8.924;2023-06-14T19:21:49;4.73;;;4.30;;
1991;SDS011;997;48.448;8.924;2023-06-14T19:24:14;4.73;;;4.33;;
1991;SDS011;997;48.448;8.924;2023-06-14T19:26:43;4.90;;;4.50;;
1991;SDS011;997;48.448;8.924;2023-06-14T19:29:09;5.63;;;5.20;;
1991;SDS011;997;48.448;8.924;2023-06-14T19:31:35;5.17;;;4.77;;
1991;SDS011;997;48.448;8.924;2023-06-14T19:34:01;6.20;;;4.93;;
1991;SDS011;997;48.448;8.924;2023-06-14T19:36:27;7.87;;;5.17;;
1991;SDS011;997;48.448;8.924;2023-06-14T19:38:52;4.70;;;4.30;;
1991;SDS011;997;48.448;8.924;2023-06-14T19:41:18;5.10;;;4.70;;
1991;SDS011;997;48.448;8.924;2023-06-14T19:43:44;4.93;;;4.43;;
1991;SDS011;997;48.448;8.924;2023-06-14T19:46:10;5.20;;;4.70;;
1991;SDS011;997;48.448;8.924;2023-06-14T19:48:36;4.73;;;4.33;;
1991;SDS011;997;48.448;8.924;2023-06-14T19:51:02;5.33;;;4.83;;
1991;SDS011;997;48.448;8.924;2023-06-14T19:53:27;4.33;;;4.03;;
1991;SDS011;997;48.448;8.924;2023-06-14T19:55:53;7.33;;;5.07;;
1991;SDS011;997;48.448;8.924;2023-06-14T19:58:19;5.17;;;4.70;;
1991;SDS011;997;48.448;8.924;2023-06-14T20:00:45;4.90;;;4.40;;
1991;SDS011;997;48.448;8.924;2023-06-14T20:03:10;6.50;;;5.07;;
1991;SDS011;997;48.448;8.924;2023-06-14T20:05:37;5.10;;;4.70;;
1991;SDS011;997;48.448;8.924;2023-06-14T20:08:03;4.87;;;4.47;;
1991;SDS011;997;48.448;8.924;2023-06-14T20:10:30;5.50;;;5.00;;
1991;SDS011;997;48.448;8.924;2023-06-14T20:12:56;5.10;;;4.70;;
1991;SDS011;997;48.448;8.924;2023-06-14T20:15:22;5.47;;;4.90;;
1991;SDS011;997;48.448;8.924;2023-06-14T20:17:48;5.97;;;5.47;;
1991;SDS011;997;48.448;8.924;2023-06-14T20:20:13;5.30;;;4.37;;
1991;SDS011;997;48.448;8.924;2023-06-14T20:22:39;11.50;;;5.07;;
1991;SDS011;997;48.448;8.924;2023-06-14T20:25:06;6.13;;;5.27;;
1991;SDS011;997;48.448;8.924;2023-06-14T20:27:33;4.57;;;4.17;;
1991;SDS011;997;48.448;8.924;2023-06-14T20:30:00;5.73;;;5.30;;
1991;SDS011;997;48.448;8.924;2023-06-14T20:32:26;5.13;;;4.83;;
1991;SDS011;997;48.448;8.924;2023-06-14T20:34:53;4.80;;;4.40;;
1991;SDS011;997;48.448;8.924;2023-06-14T20:37:19;6.37;;;4.93;;
1991;SDS011;997;48.448;8.924;2023-06-14T20:39:45;6.13;;;4.60;;
1991;SDS011;997;48.448;8.924;2023-06-14T20:42:14;5.40;;;5.00;;
1991;SDS011;997;48.448;8.924;2023-06-14T20:44:40;5.47;;;4.70;;
1991;SDS011;997;48.448;8.924;2023-06-14T20:47:07;6.70;;;5.30;;
1991;SDS011;997;48.448;8.924;2023-06-14T20:49:37;5.30;;;4.80;;
1991;SDS011;997;48.448;8.924;2023-06-14T20:52:09;5.40;;;4.90;;
1991;SDS011;997;48.448;8.924;2023-06-14T20:54:35;6.30;;;5.43;;
1991;SDS011;997;48.448;8.924;2023-06-14T20:57:11;5.63;;;4.57;;
1991;SDS011;997;48.448;8.924;2023-06-14T20:59:38;5.73;;;5.13;;
1991;SDS011;997;48.448;8.924;2023-06-14T21:02:07;5.77;;;5.17;;
1991;SDS011;997;48.448;8.924;2023-06-14T21:04:40;5.90;;;5.23;;
1991;SDS011;997;48.448;8.924;2023-06-14T21:07:06;5.57;;;5.00;;
1991;SDS011;997;48.448;8.924;2023-06-14T21:09:32;5.23;;;4.77;;
1991;SDS011;997;48.448;8.924;2023-06-14T21:11:58;6.30;;;5.83;;
1991;SDS011;997;48.448;8.924;2023-06-14T21:14:25;7.47;;;5.70;;
1991;SDS011;997;48.448;8.924;2023-06-14T21:16:51;5.20;;;4.80;;
1991;SDS011;997;48.448;8.924;2023-06-14T21:19:16;6.00;;;5.50;;
1991;SDS011;997;48.448;8.924;2023-06-14T21:21:42;5.73;;;4.43;;
1991;SDS011;997;48.448;8.924;2023-06-14T21:24:08;8.10;;;4.97;;
1991;SDS011;997;48.448;8.924;2023-06-14T21:26:33;5.47;;;4.40;;
1991;SDS011;997;48.448;8.924;2023-06-14T21:28:59;5.40;;;4.90;;
